Portada
METAR-TAF:

METAR-TAF

Aeropuertos :

Aeropuerto Cherif Al Idrissi

Alhucemas, Marruecos

latitud: 35-11N, longitud: 003-51W, altitud: 27 m

Observación

El informe se hizo hace 50 minutos, a las 10:59 UTC
Viento 10 kt del norte-noroeste, variando entre oeste-noroeste y norte-noreste
Temperatura 24°C
Humedad 57%
Presión 1014 hPa
Visibilidad 10 km o más
Escasas nubes a una altura de 2000 ft
Nubes dispersas a una altura de 20000 ft

METAR: GMTA 261059Z 34010KT 300V020 9999 FEW020 SCT200 24/15 Q1014 NOSIG

Hora: 12:49 (11:49 UTC)

Pronóstico

El informe se hizo hace 49 minutos, a las 11:00 UTC
Pronóstico válido del 26 a las 12 UTC al 27 a las 18 UTC
Viento 10 kt del norte-noroeste
Visibilidad 10 km o más
Escasas nubes a una altura de 2000 ft
Nubes dispersas a una altura de 20000 ft

TAF: GMTA 261100Z 2612/2718 34010KT 9999 FEW020 SCT200

Observaciones y pronósticos meteorológicos de más de 4000 aeropuertos (mensajes METAR y TAF).

Los puntos amarillos y rojos representan las estaciones disponibles.

Ponga el ratón en el punto deseado para ver el nombre de la estación.

Haga clic para ver las observaciones y los pronósticos meteorológicos.

Para cambiar el mapa : haga clic en los botones verdes con una cruz de color negro para hacer un zoom, en el botón verde con un guión para alejar o en las flechas verdes para mapas adyacentes.


METAR-TAF: